• Join FlightAware (Why Join?)
  • Login
  • US Flag 
04:41PM EDT


 

Airport Tracker/Info


-or-


 

Live Flight TrackerFlight Track Log ✈ ASH3751 ✈ 13-Jun-2013 ✈ KORD - KALB

Flight Track Log - Related Links

Times and Time Zones

All times are in EDT time to prevent confusion due to time zone crossing. See the ASH3751 flight status page for this flight to view local times or setup timezone preferences in your user account.

Time Position Orientation Groundspeed Altitude Reporting Facility
EDT Latitude Longitude Course Direction KTS MPH feet Rate Location/Type
10:39PM 42.0167 -87.9333 86° East 160 184 2,500  Level Chicago TRACON
10:40PM 42.0333 -87.8667 71° East 220 253 4,400 1,260 Climbing Chicago TRACON
10:41PM 42.0500 -87.8000 71° East 239 275 5,000 480 Climbing Chicago TRACON
10:42PM 42.1344 -87.4407 63° Northeast  Level FlightAware Approximate
10:42PM 42.0478 -87.7856 102° East 226 260 5,000  Level Chicago Center
10:43PM 42.1894 -87.2821 66° East  Level FlightAware Approximate
10:43PM 42.0694 -87.6900 73° East 256 295 7,200  Level Chicago Center
10:44PM 42.2426 -87.1224 66° East  Level FlightAware Approximate
10:44PM 42.1058 -87.5769 67° East 273 314 10,300  Level Chicago Center
10:45PM 42.2680 -86.9736 86° East  Level FlightAware Approximate
10:45PM 42.1400 -87.4781 65° Northeast 287 330 12,700  Level Chicago Center
10:46PM 42.1758 -87.3722 65° Northeast 303 349 15,000 1,860 Climbing Chicago Center
10:47PM 42.2125 -87.2606 66° East 322 371 16,600 1,680 Climbing Chicago Center
10:48PM 42.2531 -87.1419 65° Northeast 345 397 18,500 1,860 Climbing Chicago Center
10:49PM 42.2814 -87.0131 73° East 364 419 20,400 1,800 Climbing Chicago Center
10:50PM 42.2864 -86.8678 87° East 384 442 22,300 1,560 Climbing Chicago Center
10:51PM 42.2928 -86.7225 87° East 388 447 23,700 1,020 Climbing Chicago Center
10:52PM 42.2992 -86.5553 87° East 413 475 24,400 1,020 Climbing Chicago Center
10:53PM 42.3042 -86.4028 87° East 429 494 25,800 1,260 Climbing Chicago Center
10:54PM 42.3119 -86.2058 87° East 440 506 27,000 1,020 Climbing Chicago Center
10:55PM 42.3156 -86.0378 88° East 449 517 28,000 1,200 Climbing Chicago Center
10:56PM 42.3128 -85.8672 91° East 456 525 29,500 1,320 Climbing Chicago Center
10:57PM 42.3100 -85.6969 91° East 457 526 30,700 1,200 Climbing Chicago Center
10:58PM 42.3086 -85.5275 91° East 456 525 32,000 1,020 Climbing Chicago Center
10:59PM 42.3067 -85.3608 91° East 450 518 32,900 600 Climbing Chicago Center
11:00PM 42.3036 -85.1933 91° East 448 516 33,300 660 Climbing Chicago Center
11:01PM 42.3011 -85.0214 91° East 457 526 34,300 600 Climbing Chicago Center
11:02PM 42.2964 -84.8142 92° East 461 531 34,600 240 Climbing Chicago Center
11:03PM 42.3022 -84.6386 87° East 466 536 34,900 600 Climbing Chicago Center
11:04PM 42.3181 -84.4656 83° East 467 537 35,900 840 Climbing Chicago Center
11:05PM 42.3278 -84.3414 84° East 459 528 36,400 600 Climbing Cleveland Center
11:06PM 42.3417 -84.1708 84° East 459 528 37,000 300 Climbing Cleveland Center
11:07PM 42.3553 -83.9944 84° East 464 534 37,000  Level Cleveland Center
11:08PM 42.3708 -83.8181 83° East 464 534 37,000  Level Cleveland Center
11:09PM 42.3883 -83.6419 82° East 469 540 37,000  Level Cleveland Center
11:10PM 42.4014 -83.4542 85° East 483 556 37,000  Level Cleveland Center
11:11PM 42.4142 -83.2775 84° East 482 555 37,000  Level Cleveland Center
11:12PM 42.4286 -83.0953 84° East 482 555 37,000  Level Cleveland Center
11:13PM 42.4408 -82.9156 85° East 476 548 37,000  Level Cleveland Center
11:14PM 42.4544 -82.7444 84° East 471 542 37,000  Level Cleveland Center
11:15PM 42.4639 -82.5703 86° East 471 542 37,000  Level Cleveland Center
11:16PM 42.4772 -82.3961 84° East 466 536 37,000  Level Cleveland Center
11:17PM 42.4881 -82.2192 85° East 460 529 37,000  Level Cleveland Center
11:18PM 42.5031 -82.0419 83° East 460 529 37,000  Level Cleveland Center
11:19PM 42.5114 -81.8675 86° East 460 529 37,000  Level Cleveland Center
11:20PM 42.5256 -81.6961 84° East 460 529 37,000  Level Cleveland Center
11:21PM 42.5356 -81.5214 85° East 454 522 37,000  Level Cleveland Center
11:22PM 42.5494 -81.3414 84° East 469 540 37,000  Level Cleveland Center
11:23PM 42.5586 -81.1722 86° East 460 529 37,000  Level Cleveland Center
11:24PM 42.5678 -80.9892 86° East 467 537 37,000  Level Cleveland Center
11:25PM 42.5789 -80.8144 85° East 467 537 37,000  Level Cleveland Center
11:26PM 42.5894 -80.6594 85° East 467 537 37,000  Level Cleveland Center
11:27PM 42.5956 -80.4789 87° East 460 529 37,000  Level Cleveland Center
11:28PM 42.6036 -80.3039 86° East 465 535 37,000  Level Cleveland Center
11:29PM 42.6156 -80.1289 85° East 465 535 37,000  Level Cleveland Center
11:30PM 42.6253 -79.9369 86° East 457 526 37,000  Level Cleveland Center
11:31PM 42.6322 -79.7592 87° East 457 526 37,000  Level Cleveland Center
11:32PM 42.6414 -79.5811 86° East 462 532 37,000  Level Cleveland Center
11:33PM 42.6481 -79.4033 87° East 462 532 37,000  Level Cleveland Center
11:34PM 42.6564 -79.2225 86° East 467 537 37,000  Level Cleveland Center
11:35PM 42.6625 -79.0417 87° East 472 543 37,000  Level Cleveland Center
11:36PM 42.6703 -78.8578 87° East 478 550 37,000  Level Cleveland Center
11:37PM 42.6778 -78.6742 87° East 483 556 37,000  Level Cleveland Center
11:38PM 42.6831 -78.4875 88° East 483 556 37,000  Level Cleveland Center
11:39PM 42.6897 -78.2981 87° East 488 562 37,000  Level Cleveland Center
11:40PM 42.6964 -78.1142 87° East 488 562 37,000  Level Cleveland Center
11:41PM 42.7028 -77.9275 87° East 494 568 37,000  Level Cleveland Center
11:42PM 42.7056 -77.7775 89° East 494 568 37,000  Level Cleveland Center
11:44PM 42.7158 -77.4344 88° East 498 573 37,000 -240 Level Boston Center
11:45PM 42.7194 -77.2539 88° East 492 566 36,500 -1,200 Descending Boston Center
11:46PM 42.7231 -77.0703 88° East 487 560 34,600 -2,040 Descending Boston Center
11:47PM 42.7283 -76.8869 88° East 487 560 32,500 -2,160 Descending Boston Center
11:48PM 42.7331 -76.7061 88° East 482 555 30,300 -2,280 Descending Boston Center
11:49PM 42.7353 -76.5308 89° East 476 548 28,000 -2,340 Descending Boston Center
11:50PM 42.7372 -76.3586 89° East 464 534 25,700 -2,400 Descending Boston Center
11:51PM 42.7411 -76.1806 88° East 451 519 23,300 -2,400 Descending Boston Center
11:52PM 42.7422 -76.0194 89° East 432 497 21,000 -2,340 Descending Boston Center
11:53PM 42.7428 -75.8669 90° East 417 480 18,700 -2,400 Descending Boston Center
11:54PM 42.7444 -75.7339 89° East 397 457 16,200 -2,460 Descending Boston Center
11:55PM 42.7464 -75.5983 89° East 381 438 13,800 -2,340 Descending Boston Center
11:56PM 42.7475 -75.4739 89° East 353 406 11,600 -1,440 Descending Boston Center
11:57PM 42.7486 -75.3525 89° East 329 379 11,000 -300 Descending Boston Center
11:58PM 42.7494 -75.2422 89° East 305 351 11,000  Level Boston Center
11:59PM 42.7500 -75.1264 90° East 305 351 11,000  Level Boston Center
12:00AM 42.7528 -75.0075 88° East 305 351 11,000  Level Boston Center
12:01AM 42.7511 -74.8972 91° East 305 351 11,000  Level Boston Center
12:01AM 42.7483 -74.8322 93° East 299 344 11,000  Level Boston Center
12:02AM 42.7497 -74.7672 88° East 305 351 11,000  Level Boston Center
12:03AM 42.7500 -74.6456 90° East 305 351 11,000  Level Boston Center
12:04AM 42.7500 -74.5408 90° East 305 351 11,000 -480 Level Boston Center
12:05AM 42.7494 -74.4447 90° East 288 331 10,100 -1,500 Descending Boston Center
12:06AM 42.7283 -74.3394 105° East 262 302 8,100 -1,860 Descending Boston Center
12:07AM 42.6942 -74.2622 121° Southeast 262 302 6,400 -1,740 Descending Boston Center
12:08AM 42.6542 -74.1678 120° Southeast 262 302 4,700 -1,500 Descending Boston Center
12:09AM 42.6281 -74.0994 117° Southeast 245 282 3,500 -600 Descending Boston Center
12:10AM 42.6042 -74.0169 111° Southeast 220 253 3,500 -240 Level Boston Center
12:11AM 42.5825 -73.9233 107° East 222 255 3,100 -540 Descending Boston Center
12:12AM 42.5814 -73.8500 91° East 220 253 2,500 -360 Descending Boston Center
12:13AM 42.6172 -73.8169 34° Northeast 178 205 2,500 -180 Level Boston Center
12:14AM 42.6322 -73.7692 67° East 165 190 2,200 -540 Descending Boston Center
12:15AM 42.6922 -73.8072 335° Northwest 135 155 1,300 -780 Descending Boston Center
12:16AM 42.7297 -73.8081 359° North 133 153 500 -840 Descending Boston Center
12:18AM 42.7333 -73.8000 North  Level FlightAware Approximate
12:25AM 42.7491 -73.8020 North  Level Estimated
12:26AM 42.7491 -73.8020 North  Level Estimated